DW4212 La Cabrera ES current weather conditions

sailwx.info

Wind from 325 at 0 knots gusting 5

Air temperature 9.4° C
Dewpoint 6.2° C

Last reported at 2016-May-30 00:49 UTC.
Time now 2016-May-30 01:06 UTC

Location: N 40°53' W 003°35'.
View on Google Maps.

See reports from other nearby stations

  
Tides and Currents Weather Stations Pressure Air Temp Water Temp Dewpoint Dewpoint Depression Visibility Wind Speed Wind Dir Waves Ship Positions
date/time (UTC)wind fromknots sea level pressurealtimeterstation pressurevisibilityair tempwater tempwave heightnotes
2016-May-30 00:49 325 0 gusting 5 9.4
2016-May-30 00:39 321 1 gusting 4 10.0
2016-May-30 00:29 313 10.0
2016-May-30 00:19 313 4 gusting 6 10.0
2016-May-30 00:09 326 2 gusting 6 10.0
2016-May-29 23:59 332 10.0
2016-May-29 23:49 333 3 gusting 6 10.0
2016-May-29 23:39 339 3 gusting 6 10.0
2016-May-29 23:29 329 10.0
2016-May-29 23:19 331 1 gusting 4 10.0
2016-May-29 23:09 331 0 gusting 4 10.0
2016-May-29 22:59 328 0 gusting 5 10.6
2016-May-29 22:49 308 3 gusting 6 10.0
2016-May-29 22:39 329 1 gusting 5 10.0
2016-May-29 22:29 333 2 gusting 4 10.0
2016-May-29 22:19 325 1 gusting 6 10.0
2016-May-29 22:09 305 2 gusting 6 10.0
2016-May-29 21:59 318 0 gusting 5 10.0
2016-May-29 21:49 324 2 gusting 6 10.0
2016-May-29 21:39 326 1 gusting 6 10.0
2016-May-29 21:29 334 0 gusting 3 10.0
2016-May-29 21:19 325 10.0
2016-May-29 21:09 332 1 gusting 6 10.6
2016-May-29 20:59 342 284 gusting 284 10.6
2016-May-29 20:49 334 0 gusting 6 11.1
2016-May-29 20:39 316 2 gusting 6 11.7
2016-May-29 20:29 311 3 gusting 8 11.7
2016-May-29 20:19 322 2 gusting 6 11.7
2016-May-29 20:09 324 1 gusting 4 11.7
2016-May-29 19:59 329 11.7
2016-May-29 19:49 331 11.7
2016-May-29 19:39 326 12.2
2016-May-29 19:29 327 2 gusting 5 12.2
2016-May-29 19:20 320 0 gusting 5 12.2
2016-May-29 19:09 329 1 gusting 5 11.7
2016-May-29 18:59 360 1 gusting 6 12.2
2016-May-29 18:49 012 12.2
2016-May-29 18:39 256 0 gusting 4 12.2
2016-May-29 18:29 257 12.2
2016-May-29 18:19 257 12.2
2016-May-29 18:09 257 12.2
2016-May-29 17:59 257 0 gusting 4 12.2
2016-May-29 17:49 257 12.2
2016-May-29 17:39 275 1 gusting 8 12.2
2016-May-29 17:29 257 1 gusting 7 12.2
2016-May-29 17:19 251 0 gusting 6 12.8
2016-May-29 17:09 242 0 gusting 5 12.8
2016-May-29 16:59 219 0 gusting 9 12.8
2016-May-29 16:49 257 2 gusting 12 13.3
2016-May-29 16:39 256 3 gusting 12 13.9
2016-May-29 16:29 267 6 gusting 10 14.4
2016-May-29 16:19 237 1 gusting 9 15.0
2016-May-29 16:09 273 2 gusting 12 14.4
2016-May-29 15:59 254 6 gusting 13 13.9
2016-May-29 15:49 246 2 gusting 12 14.4
2016-May-29 15:39 258 3 gusting 9 15.0
2016-May-29 15:29 240 2 gusting 12 15.6
2016-May-29 15:19 247 0 gusting 6 15.6
2016-May-29 15:09 220 1 gusting 8 16.1
2016-May-29 14:59 252 3 gusting 9 16.1
2016-May-29 14:49 227 0 gusting 3 16.1
2016-May-29 14:39 258 1 gusting 7 15.6
2016-May-29 14:29 178 0 gusting 6 16.1
2016-May-29 14:19 174 1 gusting 6 16.1
2016-May-29 14:09 196 1 gusting 6 16.1
2016-May-29 13:59 337 16.1
2016-May-29 13:49 324 1 gusting 8 15.6
2016-May-29 13:39 260 1 gusting 8 16.1
2016-May-29 13:29 275 0 gusting 9 16.7
2016-May-29 13:09 252 1 gusting 11 15.6
2016-May-29 12:59 255 5 gusting 11 15.0
2016-May-29 12:49 253 1 gusting 6 15.6
2016-May-29 12:39 252 14.4
2016-May-29 12:29 252 13.9
2016-May-29 12:19 253 0 gusting 4 13.9
2016-May-29 12:09 252 0 gusting 4 13.9
2016-May-29 11:59 214 13.9
2016-May-29 11:49 215 13.9
2016-May-29 11:39 189 13.9
2016-May-29 11:29 188 13.9
2016-May-29 11:19 195 13.9
2016-May-29 11:09 197 13.9
2016-May-29 10:59 174 1 gusting 6 14.4
2016-May-29 10:49 250 15.0
2016-May-29 10:39 265 15.6
2016-May-29 10:29 259 16.1
2016-May-29 10:19 326 0 gusting 7 16.1
2016-May-29 10:09 311 4 gusting 10 16.1
2016-May-29 09:59 317 2 gusting 6 15.6
2016-May-29 09:49 327 1 gusting 6 14.4
2016-May-29 09:39 311 15.0
2016-May-29 09:29 323 1 gusting 6 14.4
2016-May-29 09:19 242 0 gusting 7 14.4
2016-May-29 09:09 310 1 gusting 6 13.3
2016-May-29 08:59 317 1 gusting 6 13.3
2016-May-29 08:49 311 0 gusting 4 13.3
2016-May-29 08:40 295 12.2
2016-May-29 08:29 313 0 gusting 5 11.7
2016-May-29 08:19 328 2 gusting 6 11.1
2016-May-29 08:09 299 2 gusting 7 11.1
2016-May-29 07:59 256 0 gusting 6 11.1
2016-May-29 07:49 286 11.1
2016-May-29 07:40 271 1 gusting 6 11.1
2016-May-29 07:29 314 1 gusting 5 10.6
2016-May-29 07:19 334 3 gusting 6 10.6
2016-May-29 07:09 340 0 gusting 3 10.0
2016-May-29 06:59 340 10.0
2016-May-29 06:49 344 10.0
2016-May-29 06:39 355 2 gusting 7 10.0
2016-May-29 06:29 355 10.0
2016-May-29 06:19 005 0 gusting 3 10.0
2016-May-29 06:09 011 10.0
2016-May-29 05:59 254 0 gusting 5 9.4
2016-May-29 05:49 332 9.4
2016-May-29 05:39 355 0 gusting 3 9.4
2016-May-29 05:29 355 9.4
2016-May-29 05:19 351 9.4
2016-May-29 05:09 351 9.4
2016-May-29 04:59 351 9.4
2016-May-29 04:49 355 9.4
2016-May-29 04:39 350 0 gusting 3 9.4
2016-May-29 04:29 313 9.4
2016-May-29 04:19 313 10.0
2016-May-29 04:09 275 10.0
2016-May-29 03:59 296 9.4
2016-May-29 03:49 328 10.0
2016-May-29 03:40 328 10.0
2016-May-29 03:29 328 10.0
2016-May-29 03:19 328 10.0
2016-May-29 03:09 333 2 gusting 6 10.0
2016-May-29 02:59 311 10.0
2016-May-29 02:49 350 0 gusting 5 10.0
2016-May-29 02:39 315 1 gusting 5 10.0
2016-May-29 02:29 299 0 gusting 6 10.0
2016-May-29 02:19 277 10.0
2016-May-29 02:09 277 10.0
2016-May-29 01:59 275 1 gusting 5 10.0
2016-May-29 01:49 312 0 gusting 6 10.0
2016-May-29 01:39 319 0 gusting 7 10.0
2016-May-29 01:29 322 0 gusting 4 10.0
2016-May-29 01:19 319 0 gusting 4 10.0
2016-May-29 01:09 319 0 gusting 4 9.4
2016-May-29 00:59 327 3 gusting 7 10.0
2016-May-29 00:49 327 1 gusting 6 10.0
2016-May-29 00:39 329 0 gusting 4 10.0
2016-May-29 00:29 327 1 gusting 4 9.4
2016-May-29 00:19 311 9.4
2016-May-28 23:59 302 2 gusting 6 9.4
2016-May-28 23:49 255 9.4
2016-May-28 23:39 294 9.4
2016-May-28 23:29 302 1 gusting 5 9.4
2016-May-28 23:19 310 2 gusting 6 9.4
2016-May-28 23:09 304 1 gusting 5 9.4
2016-May-28 22:59 277 1 gusting 8 9.4
2016-May-28 22:39 261 1 gusting 8 9.4
2016-May-28 22:29 332 5 gusting 11 9.4
2016-May-28 22:19 346 0 gusting 5 8.9
2016-May-28 22:09 346 3 gusting 6 9.4
2016-May-28 21:59 298 1 gusting 4 9.4
2016-May-28 21:49 293 2 gusting 9 10.0
2016-May-28 21:39 319 2 gusting 6 10.0
2016-May-28 21:29 309 1 gusting 4 10.0
2016-May-28 21:19 315 10.0
2016-May-28 21:09 316 1 gusting 4 10.0
2016-May-28 20:59 313 10.0
2016-May-28 20:49 308 10.0
2016-May-28 20:39 320 0 gusting 4 10.0
2016-May-28 20:29 316 2 gusting 7 10.0
2016-May-28 20:19 307 2 gusting 6 10.0
2016-May-28 20:09 336 3 gusting 8 10.6
2016-May-28 19:59 323 0 gusting 5 10.6
2016-May-28 19:49 332 2 gusting 6 10.6
2016-May-28 19:40 315 10.6
2016-May-28 19:29 294 2 gusting 8 10.6
2016-May-28 19:19 273 11.1
2016-May-28 19:09 292 0 gusting 6 10.6
2016-May-28 18:59 282 0 gusting 4 11.1
2016-May-28 18:49 296 0 gusting 7 11.1
2016-May-28 18:39 255 3 gusting 6 11.1
2016-May-28 18:29 242 0 gusting 8 11.7
2016-May-28 18:19 257 3 gusting 6 11.7
2016-May-28 18:09 252 3 gusting 8 12.2
2016-May-28 17:59 224 0 gusting 9 12.2
2016-May-28 17:49 259 1 gusting 8 12.8
2016-May-28 17:39 249 1 gusting 7 12.8
2016-May-28 17:29 223 0 gusting 8 12.8
2016-May-28 17:19 255 4 gusting 9 14.4
2016-May-28 17:09 194 0 gusting 6 15.0
2016-May-28 16:59 218 1 gusting 6 15.6
2016-May-28 16:49 248 1 gusting 6 15.6
2016-May-28 16:39 280 2 gusting 7 15.6
2016-May-28 16:29 243 1 gusting 6 15.6
2016-May-28 16:19 211 4 gusting 7 15.0
2016-May-28 16:09 189 0 gusting 5 15.0
2016-May-28 15:59 203 1 gusting 6 15.0
2016-May-28 15:49 256 1 gusting 6 14.4
2016-May-28 15:39 198 4 gusting 8 14.4
2016-May-28 15:29 205 2 gusting 11 13.9
2016-May-28 15:19 202 2 gusting 8 13.9
2016-May-28 15:09 192 2 gusting 7 13.3
2016-May-28 14:59 207 0 gusting 5 13.3
2016-May-28 14:49 233 13.3
2016-May-28 14:39 217 13.3
2016-May-28 14:29 248 0 gusting 4 13.3
2016-May-28 14:19 229 13.3
2016-May-28 14:09 241 13.3
2016-May-28 13:59 244 13.3
2016-May-28 13:49 244 13.3
2016-May-28 13:39 245 12.2
2016-May-28 13:29 258 2 gusting 10 12.2
2016-May-28 13:19 266 2 gusting 11 12.2
2016-May-28 13:09 253 6 gusting 16 12.2
2016-May-28 12:59 264 6 gusting 19 13.9
2016-May-28 12:49 256 7 gusting 18 15.0
2016-May-28 12:39 267 5 gusting 14 17.2
2016-May-28 12:29 208 4 gusting 9 17.2
2016-May-28 12:19 216 1 gusting 9 17.2
2016-May-28 12:09 185 3 gusting 11 17.8
2016-May-28 11:59 223 3 gusting 9 18.3
2016-May-28 11:49 202 2 gusting 13 18.3
2016-May-28 11:39 212 1 gusting 10 18.3
2016-May-28 11:29 212 2 gusting 11 17.8
2016-May-28 11:20 200 1 gusting 7 17.8
2016-May-28 11:09 204 1 gusting 6 17.2
2016-May-28 10:59 234 2 gusting 6 16.1
2016-May-28 10:49 199 1 gusting 7 15.6
2016-May-28 10:39 215 1 gusting 9 13.9
2016-May-28 10:29 246 5 gusting 12 15.6
2016-May-28 10:19 219 2 gusting 13 16.1
2016-May-28 10:09 211 0 gusting 10 15.6
2016-May-28 09:59 188 1 gusting 9 16.1
2016-May-28 09:49 206 2 gusting 8 16.1
2016-May-28 09:39 208 3 gusting 11 16.1
2016-May-28 09:29 244 4 gusting 9 17.2
2016-May-28 09:19 197 2 gusting 6 17.2
2016-May-28 09:09 192 1 gusting 6 16.7
2016-May-28 08:49 176 2 gusting 6 16.1
2016-May-28 08:39 160 0 gusting 7 16.1
2016-May-28 08:29 190 0 gusting 5 16.1
2016-May-28 08:09 180 13.9
2016-May-28 07:59 182 1 gusting 4 14.4
2016-May-28 07:49 172 15.0
2016-May-28 07:29 200 15.6
2016-May-28 07:19 253 0 gusting 4 15.0
2016-May-28 07:09 341 13.3
2016-May-28 06:59 341 12.8
2016-May-28 06:49 341 12.8
2016-May-28 06:39 341 12.2
2016-May-28 06:29 341 11.7
2016-May-28 06:19 341 11.1
2016-May-28 06:09 341 11.1
2016-May-28 05:59 341 11.1
2016-May-28 05:49 341 10.0
2016-May-28 05:39 341 10.0
2016-May-28 05:29 341 10.0
2016-May-28 05:19 341 10.0
2016-May-28 05:09 341 9.4
2016-May-28 04:59 341 8.9
2016-May-28 04:49 341 8.9
2016-May-28 04:29 341 8.9
2016-May-28 04:19 341 8.9
2016-May-28 04:09 341 8.9
2016-May-28 03:59 341 8.9
2016-May-28 03:49 341 8.9
2016-May-28 03:39 341 8.9
2016-May-28 03:29 341 8.9
2016-May-28 03:19 341 9.4
2016-May-28 03:09 341 9.4
2016-May-28 02:59 341 10.0
2016-May-28 02:49 341 10.0
2016-May-28 02:39 341 10.6
2016-May-28 02:29 341 10.6
2016-May-28 02:19 341 10.6
2016-May-28 02:09 341 10.6
2016-May-28 01:59 341 10.6
2016-May-28 01:49 341 10.6
2016-May-28 01:39 341 10.6
2016-May-28 01:29 342 10.6
2016-May-28 01:19 344 10.6
2016-May-28 01:09 344 11.1